Patton, CA (92369)

11:29 AM PDT on July 03, 2015 (GMT -0700)
North San Bernardino | | Change Station
CLOSE
Current Station
Personal Weather Station
Location: San Bernardino, CA
Elevation: 1278 ft
Nearby Weather Stations

Elev 1278 ft 34.16 °N, 117.29 °W | Updated 14 seconds ago

Clear
Clear
89.0 °F
Feels Like 86 °F
N
4.0
Wind Variable Wind from SSE
Gusts 10.0 mph

Today
High -- | Low -- °F
--% Chance of Precip.
Yesterday
High -- | Low -- °F
Precip. -- in
5:41 AM 8:04 PM
Waning Gibbous, 96% visible
Pressure 29.96 in
Visibility 7.0 miles
Clouds Scattered Clouds 15000 ft
Heat Index 86 °F
Dew Point 51 °F
Humidity 27%
Rainfall 0.00 in
Snow Depth Not available.
UV 8 out of 12
Pollen 3.60 out of 12
Air Quality Not available.
Flu Activity Not available.
METAR KSBD 031747Z 27007KT 7SM SCT150 29/10 A2996

More Conditions Fewer Conditions

Pressure 29.96 in
Visibility 7.0 miles
Clouds Scattered Clouds 15000 ft
Heat Index 86 °F
Dew Point 51 °F
Humidity 27%
Rainfall 0.00 in
Snow Depth Not available.
UV 8 out of 12
Pollen 3.60 out of 12
Air Quality Not available.
Flu Activity Not available.
METAR KSBD 031747Z 27007KT 7SM SCT150 29/10 A2996

More Conditions Fewer Conditions

10-Day Weather Forecast

×

Almanac

Astronomy

Jul. 03, 2015 Rise Set
Actual Time
Civil Twilight
Nautical Twilight
Astronomical Twilight
Moon
Length of Visible Light
Length of Day
Tomorrow will be .
, % of the Moon is Illuminated

Today's Extremes

State Highs State Lows

Community

WunderPhotos

Upload Photos

1,834,736 photos uploaded!

WunderBlogs® & News

Nearby

Air Quality

  Air Quality AQ Index Pollutant
Not available.

Snow Depth

Station Depth Elevation

Earthquake Activity

City Distance Mag. Time & Date
Minimum magnitude displayed is 2.5.

Coastal Water Temperatures

Place Temperature

Stations

Nearby Weather Stations

Station Location Temp. Windchill Dew Point Humidity Wind Precip. Elev Updated Type